Pagina principale
METAR-TAF:

METAR-TAF

Aeroporti :

Lugano, Svizzera

Aeroporto di Lugano-Agno

latitudine: 46-00N, longitudine: 008-58E, altezza: 273 m

Osservazione

Il bollettino è stato emesso 19 minuti fa, alle 20:20 UTC
Vento 9 kt da nord/nord-est
Temperature 21°C
Umidità 35%
Pressione 1007 hPa
Visibilità 10 km o più
nessuna nube inferiore a 1500 m e nessun cumulonembo

METAR: LSZA 252020Z AUTO 02009KT CAVOK 21/05 Q1007

Ora: 22:39 (20:39 UTC)

Previsione

Il bollettino è stato emesso 6 ore e 14 minuti fa, alle 14:25 UTC
Previsione valida dal 25 alle 15 UTC al 25 alle 24 UTC
Vento 12 kt da nord/nord-est con raffiche fino a 27 kt
Visibilità 10 km o più
Poco nuvoloso ad un'altezza di 7000 ft
Evoluzione graduale
dal 25 alle 18 UTC al 25 alle 21 UTC
Vento 3 kt da direzioni variabili
Visibilità 10 km o più
nessuna nube inferiore a 1500 m e nessun cumulonembo

TAF: LSZA 251425Z 2515/2524 02012G27KT 9999 FEW070 BECMG 2518/2521 VRB03KT CAVOK

Osservazioni e previsioni meteorologiche di più di 4000 aeroporti (messaggi METAR e TAF).

Le stazioni disponibili sono rappresentate dai dischi gialli e rossi sulla carta.

Puntare il mouse per vedere il nome della stazione.

Clicca sopra per visualizzare le osservazioni e previsioni meteorologiche.

Per cambiare la mappa : fare clic sui pulsanti verdi con una croce nera per ingrandire, il pulsante verde con un trattino per diminuire, o sulla freccia verde per le mappe adiacenti.


METAR-TAF: